createdAt,value
2023-03-15T00:07:26.749Z,39.43
2023-03-15T00:10:02.248Z,39.54
2023-03-15T00:12:35.378Z,39.50
2023-03-15T00:15:12.277Z,39.48
2023-03-15T00:17:47.407Z,39.54
2023-03-15T00:20:20.793Z,39.73
2023-03-15T00:22:59.579Z,39.52
2023-03-15T00:25:40.556Z,39.64
2023-03-15T00:29:31.760Z,40.00
2023-03-15T00:32:10.156Z,40.22
2023-03-15T00:34:42.610Z,39.98
2023-03-15T00:40:13.907Z,40.31
2023-03-15T00:42:42.180Z,40.55
2023-03-15T00:45:10.916Z,40.83
2023-03-15T00:47:40.531Z,40.79
2023-03-15T00:50:09.185Z,40.84
2023-03-15T00:52:43.473Z,41.46
2023-03-15T00:55:19.921Z,41.46
2023-03-15T00:57:52.213Z,41.47
2023-03-15T01:00:25.408Z,41.80
2023-03-15T01:02:59.324Z,41.72
2023-03-15T01:05:28.526Z,41.67
2023-03-15T01:08:07.799Z,41.45
2023-03-15T01:10:46.362Z,41.68
2023-03-15T01:13:18.009Z,42.16
2023-03-15T01:18:38.287Z,42.12
2023-03-15T01:21:09.888Z,42.13
2023-03-15T01:23:44.206Z,42.07
2023-03-15T01:26:42.001Z,41.99
2023-03-15T01:29:14.503Z,42.10
2023-03-15T01:31:58.379Z,42.45
2023-03-15T01:34:35.777Z,42.41
2023-03-15T01:37:10.498Z,42.21
2023-03-15T01:39:44.173Z,42.19
2023-03-15T01:42:23.713Z,42.40
2023-03-15T01:45:05.606Z,42.05
2023-03-15T01:50:24.113Z,42.37
2023-03-15T01:53:00.305Z,42.11
2023-03-15T02:01:23.143Z,42.56
2023-03-15T02:03:59.841Z,42.46
2023-03-15T02:06:40.148Z,42.32
2023-03-15T02:09:15.312Z,42.67
2023-03-15T02:14:44.942Z,42.95
2023-03-15T02:17:13.968Z,43.00
2023-03-15T02:19:59.607Z,43.00
2023-03-15T02:22:47.586Z,43.06
2023-03-15T02:25:41.294Z,43.00
2023-03-15T02:28:27.153Z,43.07
2023-03-15T02:31:05.715Z,42.87
2023-03-15T02:33:53.636Z,42.70
2023-03-15T02:36:31.594Z,42.45
2023-03-15T02:39:19.952Z,42.38
2023-03-15T02:44:46.962Z,42.62
2023-03-15T02:47:28.206Z,42.28
2023-03-15T02:50:25.859Z,42.34
2023-03-15T02:53:30.799Z,42.50
2023-03-15T02:56:23.931Z,42.65
2023-03-15T02:59:00.129Z,42.72
2023-03-15T03:01:39.295Z,42.77
2023-03-15T03:04:16.415Z,42.73
2023-03-15T03:09:39.976Z,42.69
2023-03-15T03:12:13.262Z,42.99
2023-03-15T03:14:43.776Z,43.17
2023-03-15T03:17:42.646Z,43.68
2023-03-15T03:20:18.709Z,43.61
2023-03-15T03:22:53.579Z,43.43
2023-03-15T03:25:27.538Z,43.34
2023-03-15T03:28:15.303Z,43.67
2023-03-15T03:30:54.137Z,43.82
2023-03-15T03:33:39.447Z,44.11
2023-03-15T03:39:03.352Z,44.01
2023-03-15T03:41:34.817Z,43.90
2023-03-15T03:44:05.426Z,43.91
2023-03-15T03:46:34.120Z,43.80
2023-03-15T03:49:19.323Z,43.78
2023-03-15T03:51:49.300Z,43.71
2023-03-15T03:54:31.596Z,43.75
2023-03-15T04:00:15.404Z,43.88
2023-03-15T04:02:46.784Z,43.70
2023-03-15T04:05:35.364Z,43.49
2023-03-15T04:08:11.423Z,43.50
2023-03-15T04:10:48.075Z,43.31
2023-03-15T04:13:16.310Z,43.58
2023-03-15T04:15:45.314Z,43.53
2023-03-15T04:18:23.027Z,43.33
2023-03-15T04:20:59.616Z,43.44
2023-03-15T04:23:29.223Z,43.28
2023-03-15T04:25:58.414Z,43.81
2023-03-15T04:28:33.473Z,43.51
2023-03-15T04:31:04.630Z,43.23
2023-03-15T04:33:45.213Z,43.54
2023-03-15T04:36:28.237Z,43.49
2023-03-15T04:39:13.110Z,43.54
2023-03-15T04:41:50.887Z,43.35
2023-03-15T04:44:26.618Z,43.61
2023-03-15T04:46:55.741Z,43.91
2023-03-15T04:49:34.799Z,43.69
2023-03-15T04:52:11.906Z,43.95
2023-03-15T04:55:11.558Z,44.24
2023-03-15T04:57:47.245Z,43.97
2023-03-15T05:00:17.315Z,43.96
2023-03-15T05:03:03.085Z,44.29
2023-03-15T05:05:47.042Z,44.28
2023-03-15T05:08:49.448Z,44.66
2023-03-15T05:11:28.046Z,44.27
2023-03-15T05:13:59.211Z,44.55
2023-03-15T05:16:38.537Z,44.80
2023-03-15T05:19:21.266Z,44.77
2023-03-15T05:22:02.799Z,44.87
2023-03-15T05:24:46.276Z,45.00
2023-03-15T05:27:17.917Z,45.04
2023-03-15T05:29:58.406Z,44.90
2023-03-15T05:32:45.138Z,44.71
2023-03-15T05:35:19.517Z,44.95
2023-03-15T05:37:49.634Z,44.64
2023-03-15T05:40:30.788Z,44.66
2023-03-15T05:43:34.856Z,44.67
2023-03-15T05:55:17.378Z,43.52
2023-03-15T05:58:30.858Z,43.38
2023-03-15T06:25:48.145Z,42.42
2023-03-15T06:31:07.303Z,50.45
2023-03-15T06:33:34.710Z,48.63
2023-03-15T06:36:02.104Z,46.97
2023-03-15T06:38:31.307Z,46.01
2023-03-15T06:41:01.298Z,45.31
2023-03-15T06:43:28.812Z,45.24
2023-03-15T06:45:58.675Z,45.00
2023-03-15T06:48:26.294Z,44.93
2023-03-15T06:50:53.542Z,44.54
2023-03-15T06:53:21.450Z,44.01
2023-03-15T06:55:50.804Z,43.68
2023-03-15T06:58:18.490Z,43.59
2023-03-15T07:00:46.067Z,41.12
2023-03-15T07:03:13.446Z,40.93
2023-03-15T07:05:40.433Z,40.94
2023-03-15T07:08:07.837Z,40.96
2023-03-15T07:10:34.932Z,40.87
2023-03-15T07:13:05.164Z,41.16
2023-03-15T07:15:32.269Z,41.73
2023-03-15T07:17:59.501Z,41.72
2023-03-15T07:20:26.660Z,42.03
2023-03-15T07:22:54.049Z,42.69
2023-03-15T07:25:24.098Z,42.83
2023-03-15T07:27:54.017Z,43.54
2023-03-15T07:30:22.639Z,44.67
2023-03-15T07:32:50.075Z,47.18
2023-03-15T07:35:18.208Z,46.89
2023-03-15T07:37:46.352Z,46.90
2023-03-15T07:40:15.996Z,47.30
2023-03-15T07:42:43.915Z,47.16
2023-03-15T07:45:11.921Z,47.75
2023-03-15T07:47:41.023Z,47.63
2023-03-15T07:50:09.525Z,47.78
2023-03-15T07:52:36.946Z,48.18
2023-03-15T07:55:10.038Z,49.25
2023-03-15T07:57:37.564Z,50.32
2023-03-15T08:00:06.224Z,50.48
2023-03-15T08:02:33.564Z,51.52
2023-03-15T08:05:01.900Z,51.80
2023-03-15T08:07:29.427Z,51.30
2023-03-15T08:09:58.346Z,52.11
2023-03-15T08:12:25.850Z,51.74
2023-03-15T08:14:53.171Z,52.66
2023-03-15T08:17:20.927Z,52.33
2023-03-15T08:19:47.932Z,52.26
2023-03-15T08:22:16.675Z,52.21
2023-03-15T08:24:45.529Z,51.54
2023-03-15T08:27:12.674Z,52.03
2023-03-15T08:29:39.900Z,52.25
2023-03-15T08:32:10.681Z,52.02
2023-03-15T08:34:52.151Z,52.26
2023-03-15T08:44:02.943Z,51.73
2023-03-15T08:46:48.549Z,52.73
2023-03-15T08:49:21.962Z,52.38
2023-03-15T08:52:00.674Z,52.52
2023-03-15T08:57:59.726Z,52.76
2023-03-15T09:07:28.115Z,53.30
2023-03-15T09:10:04.793Z,52.81
2023-03-15T09:12:43.539Z,51.97
2023-03-15T09:18:21.011Z,51.88
2023-03-15T09:21:00.059Z,51.94
2023-03-15T09:23:31.820Z,51.64
2023-03-15T09:29:26.712Z,50.21
2023-03-15T09:32:09.076Z,50.06
2023-03-15T09:35:14.587Z,49.69
2023-03-15T09:37:45.644Z,49.85
2023-03-15T09:40:56.678Z,49.07
2023-03-15T09:43:58.065Z,48.89
2023-03-15T09:47:02.511Z,47.55
2023-03-15T09:49:58.211Z,48.46
2023-03-15T09:52:50.141Z,48.63
2023-03-15T09:55:23.148Z,48.23
2023-03-15T09:57:59.800Z,47.88
2023-03-15T10:00:34.392Z,48.30
2023-03-15T10:03:08.464Z,48.06
2023-03-15T10:06:00.957Z,47.34
2023-03-15T10:08:38.632Z,47.07
2023-03-15T10:11:18.832Z,47.07
2023-03-15T10:14:15.029Z,47.37
2023-03-15T10:16:47.945Z,47.36
2023-03-15T10:19:32.857Z,46.57
2023-03-15T10:22:27.104Z,45.83
2023-03-15T10:25:20.013Z,46.58
2023-03-15T10:27:59.072Z,46.83
2023-03-15T10:30:29.615Z,46.50
2023-03-15T10:33:05.880Z,46.38
2023-03-15T10:35:33.687Z,46.02
2023-03-15T10:38:21.713Z,45.50
2023-03-15T10:40:54.008Z,45.84
2023-03-15T10:43:31.802Z,45.23
2023-03-15T10:46:09.705Z,44.45
2023-03-15T10:48:39.222Z,44.45
2023-03-15T10:51:17.105Z,44.05
2023-03-15T10:54:00.334Z,43.66
2023-03-15T10:56:38.094Z,43.14
2023-03-15T10:59:20.479Z,43.45
2023-03-15T11:01:55.541Z,44.10
2023-03-15T11:04:34.553Z,44.47
2023-03-15T11:07:06.304Z,44.78
2023-03-15T11:09:45.762Z,44.46
2023-03-15T11:12:25.066Z,44.17
2023-03-15T11:15:07.990Z,45.05
2023-03-15T11:17:44.123Z,45.56
2023-03-15T11:20:35.685Z,45.55
2023-03-15T11:23:19.451Z,45.69
2023-03-15T11:25:51.611Z,46.46
2023-03-15T11:28:22.778Z,46.61
2023-03-15T11:30:50.266Z,46.87
2023-03-15T11:33:34.097Z,46.86
2023-03-15T11:36:05.603Z,46.81
2023-03-15T11:38:35.226Z,46.92
2023-03-15T11:41:13.952Z,47.24
2023-03-15T11:43:52.393Z,47.59
2023-03-15T11:46:27.980Z,47.68
2023-03-15T11:49:01.350Z,47.65
2023-03-15T11:51:33.110Z,48.12
2023-03-15T11:54:07.224Z,49.28
2023-03-15T11:56:53.358Z,50.02
2023-03-15T11:59:25.512Z,50.70
2023-03-15T12:01:58.657Z,50.31
2023-03-15T12:04:44.130Z,51.18
2023-03-15T12:07:30.126Z,51.47
2023-03-15T12:09:58.559Z,51.40
2023-03-15T12:12:39.012Z,51.74
2023-03-15T12:15:44.147Z,52.44
2023-03-15T12:18:16.505Z,52.62
2023-03-15T12:20:50.895Z,52.36
2023-03-15T12:23:38.658Z,52.03
2023-03-15T12:26:10.570Z,51.95
2023-03-15T12:28:41.807Z,52.19
2023-03-15T12:31:13.370Z,52.36
2023-03-15T12:33:47.186Z,53.06
2023-03-15T12:36:27.726Z,53.18
2023-03-15T12:39:01.064Z,53.14
2023-03-15T12:41:38.676Z,53.62
2023-03-15T12:44:25.168Z,54.25
2023-03-15T12:46:59.972Z,54.76
2023-03-15T12:49:34.957Z,55.31
2023-03-15T12:52:04.850Z,55.76
2023-03-15T12:54:44.198Z,55.89
2023-03-15T13:00:33.321Z,56.21
2023-03-15T13:03:07.574Z,56.15
2023-03-15T13:06:04.218Z,57.52
2023-03-15T13:08:58.610Z,57.16
2023-03-15T13:11:34.738Z,57.12
2023-03-15T13:14:47.888Z,57.15
2023-03-15T13:18:01.410Z,57.31
2023-03-15T13:20:50.068Z,57.45
2023-03-15T13:23:52.781Z,57.11
2023-03-15T13:30:49.995Z,56.72
2023-03-15T13:43:40.530Z,57.73
2023-03-15T13:46:34.583Z,58.02
2023-03-15T13:49:31.883Z,57.85
2023-03-15T13:55:58.272Z,58.82
2023-03-15T14:05:51.493Z,58.35
2023-03-15T14:08:42.851Z,58.25
2023-03-15T14:11:58.234Z,57.52
2023-03-15T14:22:21.878Z,57.75
2023-03-15T14:25:25.863Z,57.45
2023-03-15T14:33:46.130Z,57.70
2023-03-15T14:39:48.168Z,57.69
2023-03-15T14:42:57.934Z,57.12
2023-03-15T14:46:02.975Z,56.06
2023-03-15T14:48:34.733Z,56.26
2023-03-15T14:51:36.892Z,57.32
2023-03-15T14:54:27.508Z,57.64
2023-03-15T14:57:09.041Z,57.77
2023-03-15T15:00:20.061Z,58.46
2023-03-15T15:02:59.693Z,58.83
2023-03-15T15:08:49.422Z,58.85
2023-03-15T15:14:41.465Z,59.04
2023-03-15T15:17:18.379Z,59.27
2023-03-15T15:20:06.706Z,58.83
2023-03-15T15:25:36.688Z,59.04
2023-03-15T15:28:35.905Z,59.69
2023-03-15T15:31:16.519Z,59.54
2023-03-15T15:34:01.829Z,59.74
2023-03-15T15:37:11.893Z,60.73
2023-03-15T15:43:01.436Z,61.64
2023-03-15T15:48:32.961Z,63.33
2023-03-15T15:51:31.106Z,63.79
2023-03-15T15:54:16.406Z,64.11
2023-03-15T16:02:35.273Z,64.35
2023-03-15T16:08:04.695Z,64.51
2023-03-15T16:11:09.652Z,64.69
2023-03-15T16:14:31.427Z,65.28
2023-03-15T16:17:05.032Z,64.32
2023-03-15T16:23:14.453Z,65.02
2023-03-15T16:26:11.387Z,64.71
2023-03-15T16:28:42.192Z,65.08
2023-03-15T16:31:22.597Z,65.19
2023-03-15T16:40:01.664Z,65.11
2023-03-15T16:42:47.855Z,65.65
2023-03-15T16:45:18.870Z,65.93
2023-03-15T16:47:54.626Z,65.67
2023-03-15T16:50:35.517Z,66.05
2023-03-15T16:53:13.612Z,66.60
2023-03-15T16:55:41.914Z,66.63
2023-03-15T16:58:17.628Z,66.72
2023-03-15T17:00:50.778Z,66.94
2023-03-15T17:03:20.200Z,66.55
2023-03-15T17:06:01.279Z,66.95
2023-03-15T17:08:29.821Z,67.12
2023-03-15T17:11:01.222Z,67.29
2023-03-15T17:13:33.363Z,67.21
2023-03-15T17:16:06.845Z,67.01
2023-03-15T17:18:37.950Z,67.16
2023-03-15T17:24:25.312Z,67.63
2023-03-15T17:26:52.885Z,67.67
2023-03-15T17:29:19.943Z,67.60
2023-03-15T17:31:47.995Z,69.13
2023-03-15T17:34:15.367Z,68.19
2023-03-15T17:36:43.291Z,67.67
2023-03-15T17:39:14.466Z,67.91
2023-03-15T17:41:46.998Z,68.23
2023-03-15T17:44:14.495Z,68.36
2023-03-15T17:46:42.924Z,68.12
2023-03-15T17:49:13.370Z,67.96
2023-03-15T17:51:40.887Z,68.60
2023-03-15T17:54:14.194Z,68.93
2023-03-15T17:56:43.651Z,68.64
2023-03-15T17:59:14.187Z,68.70
2023-03-15T18:01:45.681Z,68.51
2023-03-15T18:04:13.882Z,68.21
2023-03-15T18:06:41.981Z,68.56
2023-03-15T18:09:10.679Z,68.26
2023-03-15T18:11:42.738Z,67.80
2023-03-15T18:14:14.595Z,67.83
2023-03-15T18:16:42.670Z,68.67
2023-03-15T18:19:10.418Z,68.63
2023-03-15T18:21:37.941Z,68.06
2023-03-15T18:24:05.678Z,68.05
2023-03-15T18:26:33.237Z,68.19
2023-03-15T18:29:01.097Z,68.01
2023-03-15T18:31:30.065Z,71.11
2023-03-15T18:33:57.201Z,71.71
2023-03-15T18:36:24.999Z,71.22
2023-03-15T18:38:52.651Z,66.98
2023-03-15T18:41:21.813Z,66.47
2023-03-15T18:43:50.253Z,67.21
2023-03-15T18:46:18.251Z,69.33
2023-03-15T18:48:47.635Z,69.98
2023-03-15T18:51:15.537Z,67.37
2023-03-15T18:53:44.141Z,66.84
2023-03-15T18:56:17.586Z,67.88
2023-03-15T18:58:45.296Z,67.78
2023-03-15T19:01:12.695Z,68.75
2023-03-15T19:03:40.348Z,67.90
2023-03-15T19:06:11.746Z,67.91
2023-03-15T19:08:39.138Z,69.45
2023-03-15T19:11:08.085Z,69.70
2023-03-15T19:13:37.363Z,74.42
2023-03-15T19:16:05.011Z,75.92
2023-03-15T19:18:34.956Z,75.72
2023-03-15T19:21:02.799Z,71.14
2023-03-15T19:23:32.057Z,67.12
2023-03-15T19:25:59.456Z,66.31
2023-03-15T19:28:26.588Z,67.46
2023-03-15T19:30:54.104Z,68.06
2023-03-15T19:33:21.233Z,68.40
2023-03-15T19:35:50.143Z,68.34
2023-03-15T19:38:20.100Z,67.63
2023-03-15T19:40:55.248Z,68.49
2023-03-15T19:43:22.819Z,68.40
2023-03-15T19:45:50.246Z,68.18
2023-03-15T19:48:19.169Z,68.01
2023-03-15T19:50:50.218Z,67.94
2023-03-15T19:53:18.362Z,67.56
2023-03-15T19:55:47.015Z,68.47
2023-03-15T19:58:15.593Z,68.30
2023-03-15T20:00:43.289Z,68.01
2023-03-15T20:03:12.630Z,68.05
2023-03-15T20:05:40.056Z,68.13
2023-03-15T20:08:08.427Z,68.32
2023-03-15T20:10:36.701Z,68.47
2023-03-15T20:13:03.969Z,67.47
2023-03-15T20:15:32.824Z,68.14
2023-03-15T20:17:59.959Z,68.52
2023-03-15T20:20:27.561Z,68.36
2023-03-15T20:22:54.666Z,67.89
2023-03-15T20:25:22.187Z,67.94
2023-03-15T20:27:49.309Z,67.66
2023-03-15T20:30:17.737Z,67.92
2023-03-15T20:32:46.295Z,68.29
2023-03-15T20:35:13.841Z,68.41
2023-03-15T20:37:42.305Z,68.72
2023-03-15T20:40:12.634Z,68.15
2023-03-15T20:42:40.029Z,68.17
2023-03-15T20:45:09.690Z,68.34
2023-03-15T20:47:38.195Z,68.88
2023-03-15T20:50:10.313Z,68.11
2023-03-15T20:52:37.505Z,68.26
2023-03-15T20:55:07.903Z,67.89
2023-03-15T20:57:38.942Z,67.72
2023-03-15T21:00:12.599Z,67.82
2023-03-15T21:02:40.410Z,68.01
2023-03-15T21:05:13.004Z,68.09
2023-03-15T21:07:41.365Z,67.37
2023-03-15T21:10:10.289Z,68.16
2023-03-15T21:12:37.717Z,68.01
2023-03-15T21:15:06.227Z,67.56
2023-03-15T21:17:33.463Z,67.69
2023-03-15T21:20:01.058Z,68.07
2023-03-15T21:22:29.624Z,67.78
2023-03-15T21:24:57.148Z,68.49
2023-03-15T21:27:26.306Z,68.43
2023-03-15T21:29:54.013Z,67.67
2023-03-15T21:32:21.622Z,68.81
2023-03-15T21:34:48.932Z,68.69
2023-03-15T21:37:16.155Z,68.57
2023-03-15T21:39:44.898Z,69.25
2023-03-15T21:42:12.037Z,68.53
2023-03-15T21:44:39.626Z,68.19
2023-03-15T21:47:06.970Z,69.56
2023-03-15T21:49:34.433Z,69.04
2023-03-15T21:52:02.513Z,68.89
2023-03-15T21:54:29.936Z,68.24
2023-03-15T21:56:58.454Z,68.66
2023-03-15T21:59:28.759Z,68.46
2023-03-15T22:01:56.210Z,68.01
2023-03-15T22:04:25.242Z,68.18
2023-03-15T22:06:53.023Z,69.32
2023-03-15T22:09:21.374Z,68.91
2023-03-15T22:11:49.239Z,69.40
2023-03-15T22:14:18.697Z,69.25
2023-03-15T22:16:45.761Z,69.45
2023-03-15T22:19:14.486Z,68.71
2023-03-15T22:21:42.300Z,68.30
2023-03-15T22:24:09.885Z,68.69
2023-03-15T22:26:37.321Z,68.77
2023-03-15T22:29:04.709Z,68.73
2023-03-15T22:31:33.474Z,68.73
2023-03-15T22:34:02.960Z,68.94
2023-03-15T22:36:33.828Z,68.95
2023-03-15T22:39:01.510Z,69.40
2023-03-15T22:41:28.737Z,68.43
2023-03-15T22:43:56.241Z,69.59
2023-03-15T22:46:23.496Z,68.88
2023-03-15T22:48:52.526Z,69.59
2023-03-15T22:51:19.571Z,68.96
2023-03-15T22:53:47.651Z,69.03
2023-03-15T22:56:14.668Z,69.31
2023-03-15T22:58:41.994Z,69.03
2023-03-15T23:01:10.082Z,69.35
2023-03-15T23:03:37.459Z,69.51
2023-03-15T23:06:06.340Z,68.59
2023-03-15T23:08:33.505Z,68.58
2023-03-15T23:11:00.530Z,68.91
2023-03-15T23:13:27.939Z,69.01
2023-03-15T23:15:55.214Z,68.57
2023-03-15T23:18:22.621Z,69.28
2023-03-15T23:20:49.638Z,69.01
2023-03-15T23:23:18.490Z,68.79
2023-03-15T23:25:46.921Z,69.17
2023-03-15T23:28:17.406Z,68.58
2023-03-15T23:30:45.675Z,69.24
2023-03-15T23:33:13.513Z,68.65
2023-03-15T23:35:42.117Z,68.88
2023-03-15T23:38:09.661Z,69.16
2023-03-15T23:40:38.518Z,69.00
2023-03-15T23:43:05.998Z,69.03
2023-03-15T23:45:34.117Z,69.51
2023-03-15T23:48:05.735Z,69.33
2023-03-15T23:50:32.781Z,68.84
2023-03-15T23:53:00.400Z,69.17
2023-03-15T23:55:27.475Z,69.06
2023-03-15T23:57:56.446Z,69.51
